createdAt,value
2022-11-25T00:01:28.592Z,98380.25
2022-11-25T00:03:57.248Z,98380.53
2022-11-25T00:06:26.584Z,98385.72
2022-11-25T00:08:58.506Z,98387.41
2022-11-25T00:11:26.092Z,98383.34
2022-11-25T00:13:53.254Z,98390.06
2022-11-25T00:16:22.617Z,98390.63
2022-11-25T00:18:54.562Z,98393.94
2022-11-25T00:21:23.990Z,98377.56
2022-11-25T00:24:02.002Z,98400.53
2022-11-25T00:26:32.814Z,98393.38
2022-11-25T00:29:03.141Z,98394.91
2022-11-25T00:31:36.115Z,98398.41
2022-11-25T00:34:03.701Z,98405.41
2022-11-25T00:36:36.251Z,98400.22
2022-11-25T00:39:11.936Z,98408.78
2022-11-25T00:42:14.529Z,98398.13
2022-11-25T00:44:41.947Z,98409.44
2022-11-25T00:47:15.606Z,98407.63
2022-11-25T00:49:47.219Z,98416.59
2022-11-25T00:52:17.897Z,98414.94
2022-11-25T00:54:46.324Z,98420.28
2022-11-25T00:57:13.560Z,98412.41
2022-11-25T00:59:40.911Z,98421.91
2022-11-25T01:02:08.432Z,98427.41
2022-11-25T01:04:35.914Z,98422.22
2022-11-25T01:07:03.075Z,98424.88
2022-11-25T01:09:31.161Z,98427.56
2022-11-25T01:11:58.504Z,98409.09
2022-11-25T01:14:25.584Z,98418.59
2022-11-25T01:16:52.969Z,98420.28
2022-11-25T01:19:20.795Z,98426.56
2022-11-25T01:21:47.821Z,98419.03
2022-11-25T01:24:16.179Z,98374.97
2022-11-25T01:26:44.335Z,98419.44
2022-11-25T01:29:16.761Z,98419.56
2022-11-25T01:31:44.999Z,98416.91
2022-11-25T01:34:13.910Z,98422.38
2022-11-25T01:36:40.892Z,98405.97
2022-11-25T01:39:08.026Z,98409.75
2022-11-25T01:41:35.734Z,98414.94
2022-11-25T01:44:28.193Z,98414.94
2022-11-25T01:47:00.014Z,98411.28
2022-11-25T01:49:59.754Z,98402.75
2022-11-25T01:52:35.864Z,98406.78
2022-11-25T01:55:09.429Z,98408.59
2022-11-25T01:57:54.037Z,98404.13
2022-11-25T02:00:21.426Z,98405.81
2022-11-25T02:02:50.738Z,98400.63
2022-11-25T02:05:33.781Z,98401.47
2022-11-25T02:08:20.203Z,98405.66
2022-11-25T02:11:05.296Z,98400.34
2022-11-25T02:13:49.917Z,98390.28
2022-11-25T02:16:35.506Z,98410.69
2022-11-25T02:19:29.372Z,98415.88
2022-11-25T02:22:23.744Z,98405.38
2022-11-25T02:25:18.573Z,98405.38
2022-11-25T02:28:11.869Z,98412.91
2022-11-25T02:30:39.178Z,98406.59
2022-11-25T02:33:07.099Z,98423.25
2022-11-25T02:35:35.514Z,98413.44
2022-11-25T02:38:21.229Z,98408.44
2022-11-25T02:40:49.310Z,98388.31
2022-11-25T02:43:17.662Z,98416.97
2022-11-25T02:45:57.325Z,98419.47
2022-11-25T02:48:45.769Z,98419.31
2022-11-25T02:51:16.849Z,98431.66
2022-11-25T02:53:43.813Z,98418.19
2022-11-25T02:56:12.459Z,98421.00
2022-11-25T02:58:40.391Z,98427.72
2022-11-25T03:01:07.653Z,98426.88
2022-11-25T03:03:34.711Z,98426.06
2022-11-25T03:06:02.390Z,98426.88
2022-11-25T03:08:29.390Z,98438.91
2022-11-25T03:10:56.292Z,98435.25
2022-11-25T03:13:23.475Z,98419.72
2022-11-25T03:15:50.454Z,98429.94
2022-11-25T03:18:17.384Z,98425.56
2022-11-25T03:20:44.231Z,98434.41
2022-11-25T03:23:11.248Z,98412.47
2022-11-25T03:25:38.160Z,98437.06
2022-11-25T03:28:05.293Z,98431.91
2022-11-25T03:30:32.351Z,98431.06
2022-11-25T03:32:59.286Z,98436.94
2022-11-25T03:35:26.410Z,98437.66
2022-11-25T03:37:53.585Z,98436.94
2022-11-25T03:40:20.616Z,98450.78
2022-11-25T03:42:47.621Z,98446.44
2022-11-25T03:45:16.116Z,98452.34
2022-11-25T03:47:44.600Z,98459.06
2022-11-25T03:50:13.566Z,98455.41
2022-11-25T03:52:40.638Z,98447.09
2022-11-25T03:55:08.699Z,98464.47
2022-11-25T03:57:35.949Z,98452.84
2022-11-25T04:00:03.330Z,98457.31
2022-11-25T04:02:30.444Z,98455.50
2022-11-25T04:04:57.395Z,98453.38
2022-11-25T04:07:24.566Z,98456.63
2022-11-25T04:09:51.440Z,98457.84
2022-11-25T04:12:37.025Z,98457.53
2022-11-25T04:15:04.807Z,98464.56
2022-11-25T04:17:31.770Z,98461.22
2022-11-25T04:19:58.708Z,98454.59
2022-11-25T04:22:25.665Z,98456.28
2022-11-25T04:24:52.577Z,98454.44
2022-11-25T04:27:20.595Z,98451.09
2022-11-25T04:29:48.053Z,98456.56
2022-11-25T04:32:14.987Z,98458.69
2022-11-25T04:34:41.924Z,98470.72
2022-11-25T04:37:09.073Z,98466.25
2022-11-25T04:39:36.002Z,98467.41
2022-11-25T04:42:21.609Z,98466.69
2022-11-25T04:45:07.264Z,98473.53
2022-11-25T04:47:36.005Z,98467.84
2022-11-25T04:50:04.479Z,98479.88
2022-11-25T04:52:31.573Z,98485.88
2022-11-25T04:54:58.521Z,98476.91
2022-11-25T04:57:25.519Z,98479.44
2022-11-25T04:59:52.575Z,98476.59
2022-11-25T05:02:22.663Z,98477.16
2022-11-25T05:04:51.147Z,98485.84
2022-11-25T05:07:20.150Z,98434.09
2022-11-25T05:09:47.913Z,98488.91
2022-11-25T05:12:18.193Z,98493.06
2022-11-25T05:14:45.588Z,98495.75
2022-11-25T05:17:18.840Z,98497.44
2022-11-25T05:19:46.380Z,98502.63
2022-11-25T05:22:14.918Z,98505.97
2022-11-25T05:24:41.880Z,98511.16
2022-11-25T05:27:09.702Z,98511.84
2022-11-25T05:29:38.170Z,98508.19
2022-11-25T05:32:06.867Z,98501.47
2022-11-25T05:34:34.108Z,98506.81
2022-11-25T05:37:01.315Z,98510.84
2022-11-25T05:39:28.590Z,98517.88
2022-11-25T05:41:55.475Z,98518.56
2022-11-25T05:44:23.260Z,98520.22
2022-11-25T05:46:50.756Z,98514.59
2022-11-25T05:49:18.984Z,98524.44
2022-11-25T05:51:46.389Z,98516.28
2022-11-25T05:54:14.362Z,98517.56
2022-11-25T05:56:41.613Z,98510.84
2022-11-25T05:59:08.497Z,98527.78
2022-11-25T06:01:35.412Z,98526.78
2022-11-25T06:04:04.125Z,98527.63
2022-11-25T06:06:31.380Z,98530.16
2022-11-25T06:08:58.332Z,98531.16
2022-11-25T06:11:25.936Z,98516.56
2022-11-25T06:13:53.353Z,98522.59
2022-11-25T06:16:22.981Z,98540.66
2022-11-25T06:18:50.607Z,98531.28
2022-11-25T06:21:18.274Z,98546.16
2022-11-25T06:23:46.370Z,98532.88
2022-11-25T06:26:14.792Z,98544.63
2022-11-25T06:28:41.827Z,98540.00
2022-11-25T06:31:12.547Z,98544.03
2022-11-25T06:33:39.764Z,98542.06
2022-11-25T06:36:09.170Z,98547.22
2022-11-25T06:38:36.561Z,98549.75
2022-11-25T06:41:05.035Z,98548.47
2022-11-25T06:43:32.968Z,98552.81
2022-11-25T06:46:04.927Z,98557.00
2022-11-25T06:48:32.402Z,98557.00
2022-11-25T06:51:01.720Z,98549.69
2022-11-25T06:53:28.990Z,98553.22
2022-11-25T06:56:06.481Z,98553.88
2022-11-25T06:58:36.368Z,98549.69
2022-11-25T07:01:12.008Z,98556.56
2022-11-25T07:03:39.438Z,98555.56
2022-11-25T07:06:06.876Z,98565.66
2022-11-25T07:08:34.561Z,98550.09
2022-11-25T07:11:07.319Z,98565.34
2022-11-25T07:13:34.714Z,98576.53
2022-11-25T07:16:06.394Z,98382.03
2022-11-25T07:18:36.031Z,98561.25
2022-11-25T07:21:05.665Z,98575.63
2022-11-25T07:23:32.706Z,98569.31
2022-11-25T07:26:08.390Z,98547.78
2022-11-25T07:28:36.525Z,98571.22
2022-11-25T07:31:32.682Z,98579.09
2022-11-25T07:34:11.387Z,98577.94
2022-11-25T07:36:39.348Z,98580.06
2022-11-25T07:39:09.648Z,98581.91
2022-11-25T07:41:36.866Z,98579.41
2022-11-25T07:44:06.489Z,98581.75
2022-11-25T07:46:36.386Z,98578.63
2022-11-25T07:49:07.430Z,98579.31
2022-11-25T07:51:37.188Z,98542.69
2022-11-25T07:54:07.205Z,98589.91
2022-11-25T07:56:36.346Z,98585.41
2022-11-25T07:59:03.500Z,98591.59
2022-11-25T08:01:30.476Z,98589.38
2022-11-25T08:03:58.521Z,98586.84
2022-11-25T08:06:44.908Z,98605.72
2022-11-25T08:09:14.402Z,98600.31
2022-11-25T08:11:42.799Z,98605.03
2022-11-25T08:14:10.547Z,98595.50
2022-11-25T08:16:38.905Z,98601.59
2022-11-25T08:19:08.643Z,98605.00
2022-11-25T08:21:35.596Z,98601.41
2022-11-25T08:24:03.383Z,98604.47
2022-11-25T08:26:35.167Z,98595.16
2022-11-25T08:29:03.284Z,98565.63
2022-11-25T08:31:33.313Z,98604.06
2022-11-25T08:34:00.471Z,98612.16
2022-11-25T08:36:29.894Z,98602.50
2022-11-25T08:38:59.582Z,98617.75
2022-11-25T08:41:35.960Z,98613.25
2022-11-25T08:44:05.568Z,98607.28
2022-11-25T08:46:36.581Z,98611.38
2022-11-25T08:49:09.392Z,98601.03
2022-11-25T08:51:37.978Z,98611.66
2022-11-25T08:54:07.987Z,98622.41
2022-11-25T08:56:35.407Z,98618.09
2022-11-25T08:59:02.535Z,98625.19
2022-11-25T09:01:29.801Z,98618.00
2022-11-25T09:03:57.393Z,98625.72
2022-11-25T09:06:26.818Z,98623.41
2022-11-25T09:09:02.057Z,98631.94
2022-11-25T09:11:29.179Z,98627.63
2022-11-25T09:13:56.362Z,98630.34
2022-11-25T09:16:24.479Z,98623.66
2022-11-25T09:18:56.019Z,98622.03
2022-11-25T09:21:25.354Z,98628.72
2022-11-25T09:23:54.265Z,98619.72
2022-11-25T09:26:35.944Z,98621.06
2022-11-25T09:29:03.532Z,98626.41
2022-11-25T09:31:30.541Z,98622.91
2022-11-25T09:33:57.607Z,98589.25
2022-11-25T09:36:25.173Z,98628.78
2022-11-25T09:38:52.251Z,98621.72
2022-11-25T09:41:58.901Z,98618.41
2022-11-25T09:45:00.593Z,98619.38
2022-11-25T09:47:43.586Z,98603.28
2022-11-25T09:50:36.811Z,98623.75
2022-11-25T09:53:27.033Z,98622.72
2022-11-25T09:56:01.822Z,98623.88
2022-11-25T09:58:45.113Z,98600.44
2022-11-25T10:01:20.984Z,98625.75
2022-11-25T10:04:13.845Z,98622.22
2022-11-25T10:06:54.939Z,98621.84
2022-11-25T10:09:26.259Z,98618.16
2022-11-25T10:11:58.404Z,98627.75
2022-11-25T10:14:48.616Z,98624.69
2022-11-25T10:17:38.729Z,98615.13
2022-11-25T10:20:23.796Z,98631.00
2022-11-25T10:23:27.653Z,98627.66
2022-11-25T10:26:02.397Z,98622.28
2022-11-25T10:28:35.329Z,98622.13
2022-11-25T10:31:07.607Z,98624.44
2022-11-25T10:33:40.554Z,98620.28
2022-11-25T10:36:10.666Z,98627.50
2022-11-25T10:38:45.719Z,98615.94
2022-11-25T10:41:17.917Z,98625.13
2022-11-25T10:43:48.264Z,98623.28
2022-11-25T10:47:12.350Z,98620.06
2022-11-25T10:49:42.596Z,98623.94
2022-11-25T10:52:12.413Z,98626.94
2022-11-25T10:54:40.061Z,98625.41
2022-11-25T10:57:21.272Z,98627.91
2022-11-25T10:59:59.250Z,98620.25
2022-11-25T11:02:37.464Z,98619.56
2022-11-25T11:05:29.964Z,98633.13
2022-11-25T11:08:23.249Z,98633.13
2022-11-25T11:11:10.148Z,98621.72
2022-11-25T11:13:37.173Z,98635.16
2022-11-25T11:16:04.276Z,98632.31
2022-11-25T11:18:37.028Z,98626.25
2022-11-25T11:21:07.524Z,98581.19
2022-11-25T11:23:52.279Z,98632.78
2022-11-25T11:26:26.865Z,98632.25
2022-11-25T11:29:21.475Z,98624.88
2022-11-25T11:32:19.501Z,98630.91
2022-11-25T11:35:05.834Z,98625.53
2022-11-25T11:37:59.652Z,98629.00
2022-11-25T11:40:37.661Z,98639.28
2022-11-25T11:43:36.905Z,98636.91
2022-11-25T11:46:25.537Z,98631.38
2022-11-25T11:49:02.877Z,98630.56
2022-11-25T11:51:35.637Z,98635.59
2022-11-25T11:54:12.478Z,98628.84
2022-11-25T11:57:24.123Z,98637.88
2022-11-25T11:59:55.925Z,98640.03
2022-11-25T12:02:28.731Z,98647.81
2022-11-25T12:05:02.673Z,98637.75
2022-11-25T12:07:44.688Z,98642.72
2022-11-25T12:10:14.680Z,98639.81
2022-11-25T12:13:19.768Z,98632.53
2022-11-25T12:15:58.336Z,98638.88
2022-11-25T12:18:49.818Z,98642.72
2022-11-25T12:21:44.615Z,98651.75
2022-11-25T12:24:42.389Z,98634.59
2022-11-25T12:27:18.043Z,98632.91
2022-11-25T12:29:54.544Z,98630.41
2022-11-25T12:32:56.719Z,98639.19
2022-11-25T12:35:45.135Z,98642.75
2022-11-25T12:38:34.339Z,98633.03
2022-11-25T12:41:22.146Z,98643.06
2022-11-25T12:43:54.777Z,98645.09
2022-11-25T12:46:47.795Z,98642.75
2022-11-25T12:49:25.282Z,98648.66
2022-11-25T12:52:21.146Z,98652.22
2022-11-25T12:55:10.765Z,98644.88
2022-11-25T12:58:13.084Z,98639.91
2022-11-25T13:01:02.211Z,98659.34
2022-11-25T13:03:50.777Z,98652.66
2022-11-25T13:06:51.581Z,98656.19
2022-11-25T13:09:30.615Z,98654.69
2022-11-25T13:12:28.277Z,98657.19
2022-11-25T13:15:21.131Z,98660.72
2022-11-25T13:17:50.825Z,98619.22
2022-11-25T13:20:29.961Z,98662.09
2022-11-25T13:23:05.980Z,98653.06
2022-11-25T13:25:33.959Z,98656.44
2022-11-25T13:28:03.295Z,98667.19
2022-11-25T13:30:33.012Z,98656.78
2022-11-25T13:33:11.972Z,98661.31
2022-11-25T13:35:44.721Z,98672.06
2022-11-25T13:38:29.833Z,98669.06
2022-11-25T13:41:04.632Z,98663.03
2022-11-25T13:43:32.297Z,98674.31
2022-11-25T13:45:59.453Z,98672.94
2022-11-25T13:48:32.602Z,98648.84
2022-11-25T13:51:23.107Z,98674.81
2022-11-25T13:54:06.773Z,98660.75
2022-11-25T13:56:36.951Z,98679.84
2022-11-25T13:59:14.046Z,98688.06
2022-11-25T14:01:48.178Z,98685.38
2022-11-25T14:04:16.533Z,98681.88
2022-11-25T14:06:55.237Z,98689.28
2022-11-25T14:09:31.130Z,98694.97
2022-11-25T14:12:25.640Z,98690.78
2022-11-25T14:15:09.299Z,98686.56
2022-11-25T14:17:54.795Z,98688.63
2022-11-25T14:20:37.084Z,98694.34
2022-11-25T14:23:09.804Z,98665.31
2022-11-25T14:25:51.505Z,98695.19
2022-11-25T14:28:56.523Z,98692.50
2022-11-25T14:31:33.436Z,98689.81
2022-11-25T14:34:43.410Z,98688.31
2022-11-25T14:37:34.596Z,98690.44
2022-11-25T14:40:13.521Z,98697.34
2022-11-25T14:42:45.553Z,98687.78
2022-11-25T14:45:26.624Z,98697.84
2022-11-25T14:47:53.681Z,98699.19
2022-11-25T14:50:34.807Z,98691.47
2022-11-25T14:53:09.657Z,98702.34
2022-11-25T14:55:37.423Z,98656.25
2022-11-25T14:58:04.451Z,98691.81
2022-11-25T15:00:31.422Z,98697.84
2022-11-25T15:03:02.215Z,98694.47
2022-11-25T15:05:35.230Z,98696.50
2022-11-25T15:08:08.344Z,98695.81
2022-11-25T15:10:38.690Z,98700.16
2022-11-25T15:13:13.646Z,98703.16
2022-11-25T15:15:41.014Z,98707.00
2022-11-25T15:18:13.568Z,98713.84
2022-11-25T15:20:40.485Z,98714.22
2022-11-25T15:23:14.530Z,98679.66
2022-11-25T15:25:54.757Z,98696.44
2022-11-25T15:28:21.664Z,98710.84
2022-11-25T15:31:00.120Z,98709.50
2022-11-25T15:33:29.214Z,98713.16
2022-11-25T15:35:56.412Z,98717.53
2022-11-25T15:38:43.601Z,98726.63
2022-11-25T15:41:36.402Z,98721.75
2022-11-25T15:44:06.520Z,98719.41
2022-11-25T15:46:36.249Z,98716.22
2022-11-25T15:49:06.961Z,98719.72
2022-11-25T15:51:44.969Z,98723.44
2022-11-25T15:54:14.872Z,98727.78
2022-11-25T15:56:47.745Z,98725.28
2022-11-25T15:59:41.384Z,98726.28
2022-11-25T16:02:29.885Z,98730.13
2022-11-25T16:05:15.303Z,98724.94
2022-11-25T16:07:51.688Z,98725.56
2022-11-25T16:10:20.129Z,98667.72
2022-11-25T16:13:29.528Z,98716.69
2022-11-25T16:16:08.545Z,98732.88
2022-11-25T16:18:59.598Z,98726.31
2022-11-25T16:21:48.579Z,98722.97
2022-11-25T16:24:33.011Z,98735.69
2022-11-25T16:27:21.827Z,98720.94
2022-11-25T16:29:56.285Z,98739.41
2022-11-25T16:32:30.523Z,98743.94
2022-11-25T16:35:11.764Z,98736.22
2022-11-25T16:37:38.673Z,98698.13
2022-11-25T16:40:06.410Z,98744.94
2022-11-25T16:42:34.009Z,98734.22
2022-11-25T16:45:01.726Z,98734.38
2022-11-25T16:47:28.622Z,98739.34
2022-11-25T16:49:55.569Z,98737.97
2022-11-25T16:52:22.968Z,98740.63
2022-11-25T16:54:49.999Z,98743.16
2022-11-25T16:57:20.890Z,98744.28
2022-11-25T16:59:54.343Z,98735.91
2022-11-25T17:02:24.614Z,98738.06
2022-11-25T17:04:51.810Z,98746.31
2022-11-25T17:07:35.039Z,98761.53
2022-11-25T17:10:02.223Z,98585.31
2022-11-25T17:12:33.568Z,98755.31
2022-11-25T17:15:02.447Z,98751.78
2022-11-25T17:17:29.629Z,98755.44
2022-11-25T17:19:56.754Z,98755.78
2022-11-25T17:22:25.600Z,98761.97
2022-11-25T17:24:53.136Z,98754.09
2022-11-25T17:27:29.120Z,98760.63
2022-11-25T17:29:59.332Z,98723.44
2022-11-25T17:32:26.977Z,98752.72
2022-11-25T17:34:54.431Z,98761.41
2022-11-25T17:37:24.343Z,98769.69
2022-11-25T17:39:55.288Z,98758.81
2022-11-25T17:42:32.384Z,98766.53
2022-11-25T17:45:00.714Z,98772.75
2022-11-25T17:47:27.733Z,98773.28
2022-11-25T17:49:54.720Z,98768.63
2022-11-25T17:52:21.731Z,98776.00
2022-11-25T17:54:48.691Z,98763.78
2022-11-25T17:57:21.304Z,98769.75
2022-11-25T17:59:48.699Z,98779.22
2022-11-25T18:02:20.906Z,98780.34
2022-11-25T18:04:48.485Z,98790.09
2022-11-25T18:07:15.550Z,98789.97
2022-11-25T18:09:42.749Z,98793.31
2022-11-25T18:12:16.846Z,98791.66
2022-11-25T18:14:45.017Z,98794.31
2022-11-25T18:17:17.007Z,98780.34
2022-11-25T18:19:48.566Z,98795.09
2022-11-25T18:22:19.830Z,98776.59
2022-11-25T18:24:46.833Z,98800.28
2022-11-25T18:27:27.360Z,98792.69
2022-11-25T18:29:55.630Z,98792.72
2022-11-25T18:32:23.870Z,98805.63
2022-11-25T18:34:51.737Z,98803.28
2022-11-25T18:37:18.751Z,98793.03
2022-11-25T18:39:45.790Z,98796.13
2022-11-25T18:42:27.216Z,98802.97
2022-11-25T18:44:56.236Z,98805.56
2022-11-25T18:47:23.425Z,98805.75
2022-11-25T18:49:55.392Z,98794.19
2022-11-25T18:52:23.416Z,98811.09
2022-11-25T18:54:50.381Z,98793.88
2022-11-25T18:57:17.378Z,98791.91
2022-11-25T18:59:45.515Z,98788.19
2022-11-25T19:02:18.640Z,98751.81
2022-11-25T19:04:45.606Z,98802.69
2022-11-25T19:07:12.532Z,98807.72
2022-11-25T19:09:39.567Z,98808.09
2022-11-25T19:12:07.584Z,98807.44
2022-11-25T19:14:38.013Z,98812.47
2022-11-25T19:17:19.405Z,98813.78
2022-11-25T19:19:46.871Z,98812.09
2022-11-25T19:22:15.959Z,98817.63
2022-11-25T19:24:42.952Z,98822.75
2022-11-25T19:27:28.927Z,98828.44
2022-11-25T19:29:55.917Z,98827.25
2022-11-25T19:32:33.293Z,98827.13
2022-11-25T19:35:06.853Z,98824.44
2022-11-25T19:37:33.891Z,98830.47
2022-11-25T19:40:00.885Z,98829.00
2022-11-25T19:42:31.840Z,98839.22
2022-11-25T19:44:58.823Z,98836.19
2022-11-25T19:47:27.414Z,98844.91
2022-11-25T19:49:58.660Z,98834.81
2022-11-25T19:52:35.214Z,98844.06
2022-11-25T19:55:10.037Z,98848.06
2022-11-25T19:57:36.931Z,98843.84
2022-11-25T20:00:04.679Z,98852.25
2022-11-25T20:02:31.838Z,98828.53
2022-11-25T20:04:58.789Z,98859.16
2022-11-25T20:07:27.273Z,98850.03
2022-11-25T20:09:56.313Z,98867.19
2022-11-25T20:12:28.277Z,98868.03
2022-11-25T20:14:55.178Z,98871.91
2022-11-25T20:17:28.856Z,98871.91
2022-11-25T20:19:59.922Z,98870.06
2022-11-25T20:22:31.562Z,98877.75
2022-11-25T20:25:00.686Z,98872.97
2022-11-25T20:27:28.741Z,98876.00
2022-11-25T20:29:55.668Z,98879.22
2022-11-25T20:32:28.548Z,98867.78
2022-11-25T20:34:59.314Z,98871.84
2022-11-25T20:37:29.541Z,98868.13
2022-11-25T20:39:59.132Z,98883.56
2022-11-25T20:42:26.801Z,98879.03
2022-11-25T20:44:57.541Z,98866.94
2022-11-25T20:47:26.487Z,98879.22
2022-11-25T20:49:54.077Z,98871.28
2022-11-25T20:52:24.907Z,98884.03
2022-11-25T20:54:51.823Z,98886.19
2022-11-25T20:57:18.699Z,98886.88
2022-11-25T20:59:45.629Z,98884.19
2022-11-25T21:02:12.834Z,98872.13
2022-11-25T21:04:39.922Z,98878.13
2022-11-25T21:07:15.668Z,98881.09
2022-11-25T21:09:43.027Z,98886.13
2022-11-25T21:12:19.319Z,98850.16
2022-11-25T21:14:47.217Z,98888.81
2022-11-25T21:17:14.081Z,98891.16
2022-11-25T21:19:40.995Z,98879.09
2022-11-25T21:22:15.044Z,98890.50
2022-11-25T21:24:42.636Z,98882.09
2022-11-25T21:27:15.636Z,98890.81
2022-11-25T21:29:44.266Z,98897.03
2022-11-25T21:32:25.382Z,98893.78
2022-11-25T21:34:52.397Z,98888.28
2022-11-25T21:37:28.946Z,98900.69
2022-11-25T21:39:58.016Z,98884.00
2022-11-25T21:42:25.661Z,98906.34
2022-11-25T21:44:53.660Z,98909.72
2022-11-25T21:47:26.044Z,98910.19
2022-11-25T21:49:53.357Z,98905.28
2022-11-25T21:52:20.262Z,98896.56
2022-11-25T21:54:47.523Z,98910.88
2022-11-25T21:57:18.538Z,98912.00
2022-11-25T21:59:46.510Z,98902.84
2022-11-25T22:02:21.707Z,98906.38
2022-11-25T22:04:49.220Z,98917.00
2022-11-25T22:07:16.542Z,98882.09
2022-11-25T22:09:44.194Z,98923.06
2022-11-25T22:12:41.566Z,98926.22
2022-11-25T22:15:21.203Z,98912.06
2022-11-25T22:17:50.021Z,98908.53
2022-11-25T22:20:28.109Z,98925.06
2022-11-25T22:22:55.927Z,98921.00
2022-11-25T22:25:27.067Z,98929.88
2022-11-25T22:27:54.282Z,98927.50
2022-11-25T22:30:23.181Z,98930.47
2022-11-25T22:33:00.601Z,98942.56
2022-11-25T22:35:28.321Z,98935.81
2022-11-25T22:37:55.704Z,98936.97
2022-11-25T22:40:23.859Z,98946.59
2022-11-25T22:42:55.207Z,98945.63
2022-11-25T22:45:34.586Z,98937.19
2022-11-25T22:48:05.719Z,98957.88
2022-11-25T22:50:34.825Z,98950.81
2022-11-25T22:53:02.112Z,98957.88
2022-11-25T22:55:32.093Z,98951.97
2022-11-25T22:58:01.074Z,98945.41
2022-11-25T23:00:32.206Z,98962.53
2022-11-25T23:03:01.051Z,98955.66
2022-11-25T23:05:33.958Z,98964.22
2022-11-25T23:08:02.828Z,98963.03
2022-11-25T23:10:32.421Z,98961.06
2022-11-25T23:12:59.451Z,98961.91
2022-11-25T23:15:26.802Z,98965.06
2022-11-25T23:17:59.238Z,98957.88
2022-11-25T23:20:36.871Z,98973.16
2022-11-25T23:23:15.287Z,98966.97
2022-11-25T23:25:42.809Z,98950.13
2022-11-25T23:28:09.829Z,98969.50
2022-11-25T23:30:37.735Z,98972.00
2022-11-25T23:33:10.885Z,98971.59
2022-11-25T23:35:39.475Z,98970.63
2022-11-25T23:38:11.853Z,98970.09
2022-11-25T23:40:39.288Z,98977.13
2022-11-25T23:43:15.084Z,98976.28
2022-11-25T23:45:56.775Z,98977.44
2022-11-25T23:48:29.139Z,98963.69
2022-11-25T23:50:58.594Z,98969.03
2022-11-25T23:53:33.816Z,98945.38
2022-11-25T23:56:00.766Z,98974.66
2022-11-25T23:58:27.833Z,98964.59
